Time;durP1;ratioP1;P1;durP2;ratioP2;P2;SDS_P1;SDS_P2;PMS_P1;PMS_P2;Temp;Humidity;BMP_temperature;BMP_pressure;BME280_temperature;BME280_humidity;BME280_pressure;Samples;Min_cycle;Max_cycle;Signal;HPM_P1;HPM_P2
2023/06/24 00:00:59;;;;;;;6.00;4.60;;;26.80;52.70;27.10;101632.00;;;;5011374;28;20175;-46
2023/06/24 00:03:25;;;;;;;4.82;4.43;;;26.80;52.70;27.10;101626.00;;;;5009099;28;20254;-47
2023/06/24 00:05:51;;;;;;;5.00;4.50;;;26.70;52.70;27.10;101630.00;;;;5010784;28;20175;-46
2023/06/24 00:08:23;;;;;;;4.80;4.45;;;26.70;52.60;27.10;101624.00;;;;5010398;28;20175;-47
2023/06/24 00:10:49;;;;;;;4.95;4.55;;;26.70;52.60;27.10;101629.00;;;;5019134;28;20194;-49
2023/06/24 00:13:17;;;;;;;4.78;4.35;;;26.70;52.60;27.00;101626.00;;;;5017612;28;20172;-47
2023/06/24 00:15:43;;;;;;;5.55;5.00;;;26.60;52.60;27.00;101624.00;;;;5017711;28;20234;-46
2023/06/24 00:18:10;;;;;;;5.15;4.75;;;26.60;52.80;27.00;101632.00;;;;5016164;28;20187;-48
2023/06/24 00:20:36;;;;;;;4.78;4.38;;;26.60;52.90;27.00;101630.00;;;;5010399;28;20164;-47
2023/06/24 00:23:02;;;;;;;6.47;4.90;;;26.60;53.60;26.90;101633.00;;;;5009202;28;20238;-47
2023/06/24 00:25:28;;;;;;;5.90;4.47;;;26.50;52.90;26.90;101636.00;;;;5008737;28;20238;-46
2023/06/24 00:27:54;;;;;;;5.25;4.72;;;26.60;53.10;26.90;101631.00;;;;5009842;28;20274;-48
2023/06/24 00:30:20;;;;;;;5.50;4.85;;;26.50;53.00;26.90;101632.00;;;;5010118;28;20250;-48
2023/06/24 00:32:46;;;;;;;5.28;4.85;;;26.50;53.00;26.80;101633.00;;;;5009327;28;20676;-47
2023/06/24 00:35:12;;;;;;;5.15;4.65;;;26.50;53.00;26.80;101622.00;;;;5009913;28;20191;-47
2023/06/24 00:37:38;;;;;;;5.20;4.70;;;26.50;53.10;26.80;101624.00;;;;5009857;28;20176;-47
2023/06/24 00:40:05;;;;;;;5.28;4.80;;;26.40;53.10;26.70;101629.00;;;;5009757;28;20179;-47
2023/06/24 00:42:31;;;;;;;5.10;4.70;;;26.40;53.30;26.50;101612.00;;;;5008436;28;20238;-47
2023/06/24 00:44:56;;;;;;;4.47;4.18;;;26.30;53.30;26.50;101562.00;;;;5008001;28;20211;-46
2023/06/24 00:47:23;;;;;;;4.85;4.45;;;26.30;53.30;26.70;101624.00;;;;5010497;28;20291;-47
2023/06/24 00:49:50;;;;;;;5.35;4.85;;;26.30;53.30;26.60;101620.00;;;;5009721;28;20168;-47
2023/06/24 00:52:16;;;;;;;5.50;4.88;;;26.30;53.20;26.60;101621.00;;;;5015523;28;20179;-48
2023/06/24 00:54:45;;;;;;;5.05;4.63;;;26.30;53.00;26.60;101627.00;;;;5010113;28;20807;-48
2023/06/24 00:57:11;;;;;;;5.50;5.00;;;26.30;52.60;26.50;101622.00;;;;5010745;28;20603;-46
2023/06/24 00:59:37;;;;;;;5.95;4.97;;;26.20;52.20;26.50;101628.00;;;;5009603;28;20183;-48
2023/06/24 01:02:04;;;;;;;5.20;4.70;;;26.20;52.40;26.50;101623.00;;;;5011150;28;20218;-47
2023/06/24 01:04:33;;;;;;;5.20;4.70;;;26.20;52.50;26.50;101636.00;;;;5008886;28;20281;-49
2023/06/24 01:06:59;;;;;;;5.00;4.60;;;26.20;52.50;26.50;101619.00;;;;5017379;28;20597;-47
2023/06/24 01:09:25;;;;;;;5.00;4.60;;;26.20;52.60;26.40;101585.00;;;;5011742;28;20176;-47
2023/06/24 01:11:50;;;;;;;5.40;4.68;;;26.20;52.60;26.40;101625.00;;;;5009457;28;20211;-47
2023/06/24 01:14:19;;;;;;;5.25;4.78;;;26.10;52.50;26.40;101629.00;;;;5008838;28;20191;-47
2023/06/24 01:17:06;;;;;;;5.07;4.68;;;26.10;52.60;26.40;101624.00;;;;5008696;28;20708;-47
2023/06/24 01:20:12;;;;;;;4.85;4.43;;;26.10;52.60;26.30;101628.00;;;;4991380;28;20226;-47
2023/06/24 01:22:59;;;;;;;6.03;4.85;;;26.10;52.80;26.30;101628.00;;;;5003477;28;20230;-46
2023/06/24 01:26:18;;;;;;;5.05;4.55;;;26.10;52.90;26.30;101619.00;;;;5007479;28;20852;-46
2023/06/24 01:29:17;;;;;;;5.35;4.85;;;26.10;53.10;26.30;101620.00;;;;5007168;28;20214;-46
2023/06/24 01:31:46;;;;;;;5.30;4.80;;;26.00;53.10;26.20;101604.00;;;;4990427;28;20356;-47
2023/06/24 01:34:27;;;;;;;5.35;4.80;;;26.00;53.30;26.20;101613.00;;;;5007074;28;20816;-47
2023/06/24 01:37:20;;;;;;;5.00;4.60;;;26.00;53.40;26.20;101617.00;;;;5007694;28;20211;-47
2023/06/24 01:39:50;;;;;;;5.40;4.60;;;25.90;53.40;26.10;101613.00;;;;5007071;28;20286;-46
2023/06/24 01:42:16;;;;;;;6.03;4.53;;;25.90;53.40;26.10;101603.00;;;;5007502;28;20192;-48
2023/06/24 01:44:43;;;;;;;6.60;4.72;;;25.90;53.50;26.10;101601.00;;;;5006230;28;20832;-48
2023/06/24 01:47:09;;;;;;;8.75;4.53;;;25.90;53.60;26.10;101615.00;;;;5007115;28;20657;-46
2023/06/24 01:49:37;;;;;;;5.15;4.22;;;25.90;53.60;26.10;101594.00;;;;5007392;28;20176;-48
2023/06/24 01:52:02;;;;;;;5.25;4.50;;;25.90;53.60;26.10;101599.00;;;;5007003;28;20262;-47
2023/06/24 01:54:28;;;;;;;5.65;4.78;;;25.80;53.60;26.00;101606.00;;;;4990665;28;20286;-48
2023/06/24 01:56:55;;;;;;;5.88;4.50;;;25.90;53.70;26.00;101607.00;;;;5007187;28;20190;-46
2023/06/24 01:59:21;;;;;;;6.05;4.90;;;25.80;54.00;26.00;101607.00;;;;5007374;28;20278;-46
2023/06/24 02:01:47;;;;;;;6.72;4.80;;;25.80;53.70;26.00;101605.00;;;;5007283;28;20182;-47
2023/06/24 02:04:12;;;;;;;5.47;4.60;;;25.80;53.70;26.00;101607.00;;;;5008189;28;20204;-46
2023/06/24 02:06:39;;;;;;;4.82;4.43;;;25.80;53.80;25.90;101604.00;;;;5006860;28;20195;-46
2023/06/24 02:09:04;;;;;;;5.25;4.75;;;25.80;53.80;25.90;101601.00;;;;5007227;28;20668;-47
2023/06/24 02:11:30;;;;;;;4.90;4.50;;;25.80;53.80;25.90;101608.00;;;;5007307;28;20179;-47
2023/06/24 02:13:56;;;;;;;6.30;4.57;;;25.70;53.70;25.90;101613.00;;;;5006894;28;20203;-47
2023/06/24 02:16:22;;;;;;;5.38;4.68;;;25.70;53.70;25.80;101602.00;;;;4990877;28;20183;-48
2023/06/24 02:18:48;;;;;;;5.22;4.72;;;25.70;53.70;25.80;101606.00;;;;4990607;28;20238;-47
2023/06/24 02:21:15;;;;;;;5.50;4.35;;;25.60;53.70;25.80;101595.00;;;;5008254;28;20175;-47
2023/06/24 02:23:40;;;;;;;6.53;4.63;;;25.60;53.70;25.80;101600.00;;;;5006593;28;20236;-47
2023/06/24 02:26:06;;;;;;;5.80;4.70;;;25.60;53.70;25.80;101605.00;;;;5007100;28;20307;-46
2023/06/24 02:28:33;;;;;;;4.82;4.35;;;25.60;53.70;25.70;101603.00;;;;5006773;28;20179;-48
2023/06/24 02:30:59;;;;;;;6.18;4.72;;;25.60;53.80;25.70;101601.00;;;;5006919;28;20565;-47
2023/06/24 02:33:24;;;;;;;6.50;4.65;;;25.60;53.90;25.70;101595.00;;;;5006534;28;20184;-47
2023/06/24 02:35:50;;;;;;;5.97;4.70;;;25.50;53.90;25.70;101599.00;;;;5006775;28;20636;-48
2023/06/24 02:38:16;;;;;;;6.47;4.60;;;25.50;53.90;25.70;101599.00;;;;5007930;28;20243;-47
2023/06/24 02:40:45;;;;;;;5.13;4.63;;;25.50;53.90;25.70;101602.00;;;;5006792;28;20180;-47
2023/06/24 02:43:10;;;;;;;5.28;4.78;;;25.50;54.00;25.60;101604.00;;;;5004613;28;20176;-47
2023/06/24 02:45:36;;;;;;;5.00;4.50;;;25.50;53.90;25.60;101597.00;;;;5012312;28;20212;-47
2023/06/24 02:48:02;;;;;;;5.10;4.60;;;25.50;54.00;25.60;101586.00;;;;5015441;28;20203;-48
2023/06/24 02:50:28;;;;;;;5.43;5.00;;;25.50;53.90;25.60;101582.00;;;;4977395;28;20176;-48
2023/06/24 02:52:54;;;;;;;5.55;4.72;;;25.40;53.90;25.60;101580.00;;;;5015547;28;20176;-47
2023/06/24 02:55:20;;;;;;;5.68;5.00;;;25.40;54.00;25.50;101599.00;;;;4976318;28;20733;-47
2023/06/24 02:57:45;;;;;;;6.25;5.07;;;25.40;54.00;25.50;101606.00;;;;4994217;28;20183;-48
2023/06/24 03:00:13;;;;;;;5.22;4.82;;;25.40;54.00;25.50;101607.00;;;;5012378;28;20183;-47
2023/06/24 03:02:39;;;;;;;7.65;4.68;;;25.40;54.00;25.50;101607.00;;;;5013613;28;20806;-48
2023/06/24 03:05:06;;;;;;;5.30;4.80;;;25.30;54.00;25.50;101603.00;;;;4999109;28;20234;-47
2023/06/24 03:07:34;;;;;;;6.85;4.55;;;25.30;54.10;25.40;101605.00;;;;5017765;28;20168;-48
2023/06/24 03:10:02;;;;;;;5.10;4.70;;;25.30;54.10;25.40;101598.00;;;;4996124;28;20202;-46
2023/06/24 03:12:28;;;;;;;5.03;4.40;;;25.30;54.10;25.40;101606.00;;;;4988071;28;20177;-47
2023/06/24 03:14:54;;;;;;;5.30;4.60;;;25.30;54.90;25.40;101598.00;;;;4991596;28;20188;-47
2023/06/24 03:17:20;;;;;;;6.53;4.70;;;25.20;54.40;25.40;101593.00;;;;4992600;28;20185;-47
2023/06/24 03:19:46;;;;;;;6.70;4.78;;;25.30;54.50;25.30;101602.00;;;;4990348;28;20193;-46
2023/06/24 03:22:11;;;;;;;5.00;4.50;;;25.20;54.40;25.30;101608.00;;;;4991235;28;20176;-47
2023/06/24 03:24:37;;;;;;;6.85;5.00;;;25.20;54.40;25.30;101601.00;;;;4991076;28;20243;-47
2023/06/24 03:27:03;;;;;;;5.03;4.63;;;25.20;54.40;25.30;101609.00;;;;4997598;28;20164;-49
2023/06/24 03:29:29;;;;;;;8.10;4.85;;;25.20;54.40;25.30;101617.00;;;;4996969;28;20684;-48
2023/06/24 03:31:55;;;;;;;5.10;4.60;;;25.20;54.40;25.30;101614.00;;;;4991262;28;20183;-48
2023/06/24 03:34:21;;;;;;;4.83;4.43;;;25.10;54.30;25.20;101631.00;;;;4992162;28;20290;-47
2023/06/24 03:36:47;;;;;;;5.10;4.60;;;25.10;54.30;25.20;101632.00;;;;4992029;28;20214;-47
2023/06/24 03:39:12;;;;;;;4.90;4.33;;;25.10;54.30;25.20;101636.00;;;;4991248;28;20183;-47
2023/06/24 03:41:39;;;;;;;6.07;4.90;;;25.10;54.30;25.20;101628.00;;;;4992563;28;20316;-47
2023/06/24 03:44:05;;;;;;;4.80;4.30;;;25.10;54.30;25.10;101604.00;;;;4991967;28;20204;-47
2023/06/24 03:46:32;;;;;;;5.07;4.57;;;25.00;54.30;25.10;101625.00;;;;4992665;28;20183;-46
2023/06/24 03:48:58;;;;;;;7.00;5.00;;;25.00;54.30;25.10;101620.00;;;;4992620;28;20176;-48
2023/06/24 03:51:24;;;;;;;5.47;4.83;;;25.00;54.30;25.00;101619.00;;;;4992649;28;20264;-46
2023/06/24 03:53:51;;;;;;;5.10;4.60;;;25.00;54.50;25.00;101619.00;;;;4992222;28;20675;-46
2023/06/24 03:56:17;;;;;;;5.17;4.63;;;24.90;54.50;25.00;101622.00;;;;4992966;28;20196;-48
2023/06/24 03:58:42;;;;;;;6.37;4.70;;;24.90;54.60;25.00;101622.00;;;;4992672;28;20231;-46
2023/06/24 04:01:09;;;;;;;5.57;4.93;;;24.90;54.50;25.00;101618.00;;;;4991846;28;20543;-46
2023/06/24 04:03:35;;;;;;;6.07;4.67;;;24.90;54.50;24.90;101629.00;;;;4991496;28;20208;-47
2023/06/24 04:06:03;;;;;;;5.93;4.70;;;24.80;54.50;24.90;101627.00;;;;4991059;28;20216;-47
2023/06/24 04:08:29;;;;;;;7.27;5.00;;;24.80;54.50;24.90;101626.00;;;;4991821;28;20169;-46
2023/06/24 04:11:03;;;;;;;5.07;4.67;;;24.80;54.60;24.90;101619.00;;;;4992041;28;20168;-46
2023/06/24 04:13:29;;;;;;;5.43;4.90;;;24.80;54.70;24.90;101623.00;;;;4991624;28;20263;-46
2023/06/24 04:15:55;;;;;;;7.23;4.97;;;24.80;54.70;24.80;101641.00;;;;4992113;28;20582;-46
2023/06/24 04:18:20;;;;;;;5.67;5.07;;;24.70;54.70;24.80;101641.00;;;;4991933;28;20172;-47
2023/06/24 04:20:46;;;;;;;6.33;4.50;;;24.70;54.70;24.80;101642.00;;;;4991819;28;20180;-46
2023/06/24 04:23:14;;;;;;;4.93;4.50;;;24.70;54.70;24.80;101601.00;;;;4991588;28;20211;-47
2023/06/24 04:25:40;;;;;;;6.43;4.90;;;24.70;54.80;24.80;101645.00;;;;4991528;28;20690;-47
2023/06/24 04:28:06;;;;;;;5.67;5.10;;;24.70;54.80;24.70;101652.00;;;;4991467;28;20227;-46
2023/06/24 04:30:32;;;;;;;7.60;5.07;;;24.70;55.00;24.70;101651.00;;;;4991607;28;20196;-46
2023/06/24 04:32:58;;;;;;;6.10;4.90;;;24.70;55.00;24.70;101659.00;;;;4991539;28;20289;-48
2023/06/24 04:35:24;;;;;;;8.90;8.10;;;24.60;54.90;24.70;101646.00;;;;4991550;28;20192;-46
2023/06/24 04:37:50;;;;;;;10.57;9.47;;;24.60;55.10;24.70;101663.00;;;;4991696;28;20766;-48
2023/06/24 04:40:19;;;;;;;8.50;7.73;;;24.60;55.10;24.70;101662.00;;;;4994413;28;20188;-48
2023/06/24 04:42:45;;;;;;;8.57;7.67;;;24.60;55.10;24.70;101672.00;;;;4999204;28;20196;-47
2023/06/24 04:45:11;;;;;;;7.43;6.83;;;24.60;55.10;24.70;101663.00;;;;4992043;28;20689;-47
2023/06/24 04:47:37;;;;;;;7.67;6.47;;;24.60;55.20;24.70;101652.00;;;;4989506;28;20187;-47
2023/06/24 04:50:03;;;;;;;7.30;5.67;;;24.60;55.20;24.70;101655.00;;;;5013911;28;20239;-47
2023/06/24 04:52:29;;;;;;;6.20;5.37;;;24.60;55.30;24.70;101657.00;;;;5013366;28;20183;-47
2023/06/24 04:54:55;;;;;;;6.03;5.00;;;24.60;55.20;24.60;101669.00;;;;5010740;28;20195;-46
2023/06/24 04:57:29;;;;;;;6.23;5.13;;;24.60;55.30;24.60;101662.00;;;;5011980;28;20634;-47
2023/06/24 04:59:55;;;;;;;5.87;5.20;;;24.60;55.30;24.60;101663.00;;;;5012026;28;20176;-49
2023/06/24 05:02:21;;;;;;;5.50;5.00;;;24.50;55.00;24.60;101665.00;;;;5012236;28;20179;-47
2023/06/24 05:04:46;;;;;;;5.50;5.00;;;24.40;55.20;24.60;101655.00;;;;5018406;28;20250;-47
2023/06/24 05:07:12;;;;;;;7.37;5.27;;;24.40;55.20;24.60;101648.00;;;;5010909;28;20174;-47
2023/06/24 05:09:38;;;;;;;5.60;4.83;;;24.50;55.40;24.60;101648.00;;;;5008573;28;20654;-47
2023/06/24 05:12:08;;;;;;;5.87;5.33;;;24.50;55.40;24.60;101640.00;;;;5009033;28;20275;-47
2023/06/24 05:14:36;;;;;;;6.20;5.53;;;24.50;55.70;24.60;101653.00;;;;5009528;28;20191;-47
2023/06/24 05:17:05;;;;;;;5.67;5.10;;;24.50;55.50;24.60;101646.00;;;;5009982;28;20171;-47
2023/06/24 05:19:31;;;;;;;5.50;5.00;;;24.50;55.70;24.60;101649.00;;;;5015570;28;20186;-48
2023/06/24 05:21:56;;;;;;;5.50;5.00;;;24.40;55.60;24.60;101659.00;;;;5015526;28;20176;-47
2023/06/24 05:24:22;;;;;;;6.63;5.07;;;24.40;55.60;24.60;101659.00;;;;5010243;28;20207;-47
2023/06/24 05:26:49;;;;;;;5.83;5.03;;;24.40;55.60;24.60;101654.00;;;;5012482;28;20191;-47
2023/06/24 05:29:15;;;;;;;5.33;4.83;;;24.40;55.70;24.60;101656.00;;;;5009271;28;20650;-47
2023/06/24 05:31:41;;;;;;;5.50;5.00;;;24.40;55.60;24.60;101650.00;;;;4992420;28;20179;-47
2023/06/24 05:34:07;;;;;;;6.47;5.50;;;24.40;56.40;24.50;101647.00;;;;5008587;28;20230;-47
2023/06/24 05:36:33;;;;;;;5.60;5.10;;;24.40;56.00;24.50;101652.00;;;;5010058;28;20190;-47
2023/06/24 05:38:59;;;;;;;5.70;5.20;;;24.40;56.00;24.50;101653.00;;;;5009929;28;20213;-47
2023/06/24 05:41:25;;;;;;;5.87;5.37;;;24.40;56.00;24.50;101660.00;;;;5009995;28;20215;-47
2023/06/24 05:44:03;;;;;;;5.27;4.87;;;24.40;56.00;24.50;101650.00;;;;5007733;28;20216;-47
2023/06/24 05:46:29;;;;;;;5.83;5.33;;;24.40;56.00;24.50;101656.00;;;;4993018;28;20228;-46
2023/06/24 05:48:54;;;;;;;6.07;5.47;;;24.30;56.40;24.50;101659.00;;;;5009341;28;20610;-48
2023/06/24 05:51:20;;;;;;;6.20;5.60;;;24.30;56.40;24.40;101664.00;;;;5009633;28;20592;-48
2023/06/24 05:53:46;;;;;;;6.07;5.57;;;24.40;56.60;24.40;101649.00;;;;5008528;28;20199;-46
2023/06/24 05:56:11;;;;;;;6.13;5.63;;;24.30;56.60;24.40;101656.00;;;;5016426;28;20167;-47
2023/06/24 05:58:37;;;;;;;6.23;5.63;;;24.30;56.60;24.40;101658.00;;;;4994216;28;20164;-46
2023/06/24 06:01:03;;;;;;;6.47;5.97;;;24.30;56.70;24.40;101650.00;;;;5009430;28;20642;-48
2023/06/24 06:03:28;;;;;;;6.70;6.10;;;24.30;57.10;24.40;101660.00;;;;5008418;28;20164;-47
2023/06/24 06:05:54;;;;;;;6.20;5.60;;;24.30;56.90;24.40;101655.00;;;;5009421;28;20206;-47
2023/06/24 06:08:20;;;;;;;6.10;5.60;;;24.30;57.00;24.40;101653.00;;;;5009478;28;20203;-46
2023/06/24 06:10:46;;;;;;;6.20;5.70;;;24.30;57.00;24.40;101665.00;;;;5009271;28;20743;-47
2023/06/24 06:13:12;;;;;;;6.10;5.60;;;24.20;57.10;24.40;101659.00;;;;5008370;28;20171;-46
2023/06/24 06:15:38;;;;;;;6.27;5.67;;;24.30;57.20;24.40;101666.00;;;;5009321;28;20809;-46
2023/06/24 06:18:03;;;;;;;6.63;6.03;;;24.30;57.40;24.40;101666.00;;;;5009031;28;20175;-48
2023/06/24 06:20:29;;;;;;;6.83;6.23;;;24.20;57.60;24.40;101669.00;;;;5009238;28;20167;-46
2023/06/24 06:22:55;;;;;;;7.17;6.57;;;24.30;57.90;24.40;101668.00;;;;5009004;28;20202;-47
2023/06/24 06:25:21;;;;;;;7.37;6.07;;;24.20;58.00;24.40;101671.00;;;;5008468;28;20579;-48
2023/06/24 06:27:46;;;;;;;6.30;5.80;;;24.20;58.00;24.40;101671.00;;;;5008946;28;20211;-47
2023/06/24 06:30:13;;;;;;;6.43;5.70;;;24.20;58.00;24.30;101672.00;;;;5011683;28;20176;-47
2023/06/24 06:32:39;;;;;;;7.70;7.10;;;24.20;58.00;24.30;101676.00;;;;4995312;28;20251;-46
2023/06/24 06:35:05;;;;;;;7.47;6.77;;;24.20;58.00;24.30;101676.00;;;;5012445;28;20274;-47
2023/06/24 06:37:31;;;;;;;6.50;5.90;;;24.20;58.00;24.30;101681.00;;;;5012732;28;20183;-47
2023/06/24 06:39:57;;;;;;;7.10;6.40;;;24.10;57.70;24.30;101681.00;;;;4995426;28;20254;-47
2023/06/24 06:42:22;;;;;;;6.60;6.10;;;24.10;58.20;24.30;101682.00;;;;5012845;28;20175;-46
2023/06/24 06:44:48;;;;;;;7.60;6.90;;;24.10;57.90;24.30;101672.00;;;;5011590;28;20207;-47
2023/06/24 06:47:14;;;;;;;7.50;6.73;;;24.10;58.00;24.30;101676.00;;;;5012484;28;20192;-46
2023/06/24 06:49:40;;;;;;;8.17;7.37;;;24.10;58.00;24.30;101682.00;;;;5017636;28;20195;-47
2023/06/24 06:52:06;;;;;;;7.33;6.67;;;24.10;58.40;24.30;101685.00;;;;5015416;28;20677;-47
2023/06/24 06:54:32;;;;;;;7.87;7.17;;;24.10;58.00;24.30;101687.00;;;;5013633;28;20199;-46
2023/06/24 06:57:04;;;;;;;7.17;6.50;;;24.10;58.50;24.30;101700.00;;;;5013803;28;20172;-47
2023/06/24 06:59:33;;;;;;;7.40;6.70;;;24.10;58.40;24.30;101690.00;;;;5014389;28;20190;-46
2023/06/24 07:01:59;;;;;;;7.37;6.67;;;24.10;58.60;24.30;101685.00;;;;5014395;28;20237;-47
2023/06/24 07:04:24;;;;;;;7.77;7.07;;;24.10;58.50;24.30;101701.00;;;;5024965;28;20219;-48
2023/06/24 07:06:50;;;;;;;6.50;5.90;;;24.10;58.70;24.30;101691.00;;;;5012344;28;20654;-48
2023/06/24 07:09:16;;;;;;;6.60;6.00;;;24.10;58.50;24.30;101689.00;;;;5012973;28;20180;-47
2023/06/24 07:11:42;;;;;;;8.63;7.93;;;24.10;58.40;24.30;101691.00;;;;4997160;28;20180;-48
2023/06/24 07:14:08;;;;;;;10.43;9.33;;;24.00;58.70;24.30;101694.00;;;;5003933;28;20537;-47
2023/06/24 07:16:34;;;;;;;11.53;10.33;;;24.10;59.20;24.30;101689.00;;;;4992992;28;20178;-47
2023/06/24 07:19:00;;;;;;;9.97;9.07;;;24.10;59.40;24.30;101692.00;;;;4992931;28;20255;-46
2023/06/24 07:21:25;;;;;;;9.23;8.33;;;24.10;59.10;24.30;101700.00;;;;4992983;28;20188;-46
2023/06/24 07:23:51;;;;;;;11.47;10.33;;;24.00;59.30;24.30;101702.00;;;;4992435;28;20192;-48
2023/06/24 07:26:17;;;;;;;7.73;7.03;;;24.10;59.40;24.30;101698.00;;;;4993142;28;20256;-47
2023/06/24 07:28:43;;;;;;;8.33;7.60;;;24.00;59.10;24.30;101687.00;;;;4996958;28;20725;-47
2023/06/24 07:31:08;;;;;;;9.80;8.90;;;24.00;59.50;24.30;101691.00;;;;5012934;28;20251;-47
2023/06/24 07:33:34;;;;;;;10.57;9.57;;;24.00;59.60;24.30;101702.00;;;;5012098;28;20250;-47
2023/06/24 07:36:00;;;;;;;10.60;9.60;;;24.00;59.60;24.20;101708.00;;;;5011378;28;20668;-47
2023/06/24 07:38:28;;;;;;;10.07;9.17;;;24.00;59.70;24.20;101700.00;;;;5012556;28;20650;-47
2023/06/24 07:40:54;;;;;;;8.57;7.77;;;24.00;59.50;24.20;101706.00;;;;5010876;28;20319;-47
2023/06/24 07:43:20;;;;;;;8.07;7.37;;;24.00;59.50;24.20;101700.00;;;;5011642;28;20247;-48
2023/06/24 07:45:45;;;;;;;8.33;7.60;;;24.00;59.40;24.20;101706.00;;;;5014733;28;20274;-48
2023/06/24 07:48:11;;;;;;;8.30;7.50;;;23.90;59.50;24.20;101707.00;;;;5015269;28;20538;-46
2023/06/24 07:50:38;;;;;;;8.03;7.33;;;23.90;59.50;24.20;101698.00;;;;5011787;28;20168;-47
2023/06/24 07:53:04;;;;;;;8.00;7.20;;;23.90;59.40;24.20;101704.00;;;;5011276;28;20160;-47
2023/06/24 07:55:30;;;;;;;7.80;7.10;;;23.90;59.60;24.20;101697.00;;;;5013856;28;20203;-47
2023/06/24 07:57:58;;;;;;;8.10;7.30;;;23.90;59.60;24.20;101694.00;;;;5018043;28;20246;-46
2023/06/24 08:00:23;;;;;;;8.43;7.60;;;23.90;59.60;24.20;101697.00;;;;5003153;28;20188;-48
2023/06/24 08:02:50;;;;;;;8.80;7.97;;;23.90;59.60;24.20;101694.00;;;;5010731;28;20262;-48
2023/06/24 08:05:18;;;;;;;8.80;7.90;;;23.90;59.60;24.20;101699.00;;;;5001521;28;20223;-47
2023/06/24 08:07:44;;;;;;;7.87;6.63;;;23.90;59.70;24.20;101697.00;;;;4992358;28;20198;-46
2023/06/24 08:10:09;;;;;;;7.87;7.07;;;23.90;59.70;24.20;101698.00;;;;4992257;28;20252;-47
2023/06/24 08:12:35;;;;;;;8.00;7.30;;;23.80;59.90;24.30;101698.00;;;;4992387;28;20176;-46
2023/06/24 08:15:01;;;;;;;8.50;7.50;;;23.90;60.20;24.20;101688.00;;;;4992120;28;20224;-47
2023/06/24 08:17:27;;;;;;;8.07;7.37;;;23.80;60.10;24.30;101690.00;;;;4992050;28;20208;-47
2023/06/24 08:19:52;;;;;;;7.17;6.57;;;23.90;60.10;24.30;101694.00;;;;4992263;28;20563;-47
2023/06/24 08:22:18;;;;;;;6.80;6.20;;;23.90;60.50;24.40;101683.00;;;;4992124;28;20181;-47
2023/06/24 08:24:44;;;;;;;7.10;6.47;;;23.90;60.50;24.40;101690.00;;;;4991434;28;20640;-48
2023/06/24 08:30:14;;;;;;;6.97;6.27;;;23.80;59.90;24.40;101687.00;;;;4991854;28;20195;-46
2023/06/24 08:32:41;;;;;;;8.50;6.93;;;23.90;60.30;24.40;101686.00;;;;4991901;28;20661;-48
2023/06/24 08:35:08;;;;;;;8.87;6.10;;;23.90;60.70;24.50;101673.00;;;;4991128;28;20192;-48
2023/06/24 08:37:34;;;;;;;6.40;5.80;;;24.00;60.30;24.50;101677.00;;;;4991499;28;20195;-47
2023/06/24 08:40:00;;;;;;;6.43;5.83;;;24.10;60.10;24.60;101673.00;;;;4990875;28;20573;-47
2023/06/24 08:42:25;;;;;;;7.40;6.70;;;24.10;60.40;24.60;101674.00;;;;4991796;28;20192;-47
2023/06/24 08:44:51;;;;;;;6.57;5.90;;;24.10;60.20;24.60;101666.00;;;;4989820;28;20263;-46
2023/06/24 08:47:18;;;;;;;6.37;5.77;;;24.20;60.20;24.70;101672.00;;;;4998331;28;20235;-47
2023/06/24 08:49:53;;;;;;;6.60;5.87;;;24.10;60.10;24.70;101661.00;;;;4997158;28;20251;-46
2023/06/24 08:52:19;;;;;;;5.60;5.10;;;24.20;60.30;24.70;101655.00;;;;4993434;28;20172;-47
2023/06/24 08:54:49;;;;;;;6.23;5.73;;;24.20;60.20;24.80;101670.00;;;;4989684;28;20877;-46
2023/06/24 08:57:15;;;;;;;5.87;5.37;;;24.20;60.50;24.80;101676.00;;;;4991865;28;20262;-48
2023/06/24 08:59:41;;;;;;;6.87;6.07;;;24.30;60.30;24.80;101664.00;;;;4992835;28;20239;-47
2023/06/24 09:02:07;;;;;;;7.00;6.20;;;24.30;60.30;24.80;101669.00;;;;4992331;28;20188;-46
2023/06/24 09:04:33;;;;;;;7.17;6.37;;;24.30;59.70;24.80;101667.00;;;;5000534;28;20208;-47
2023/06/24 09:06:59;;;;;;;8.00;6.57;;;24.30;59.30;24.90;101670.00;;;;5014553;28;20231;-47
2023/06/24 09:09:25;;;;;;;6.90;6.30;;;24.30;59.20;24.90;101668.00;;;;5010634;28;20176;-46
2023/06/24 09:11:58;;;;;;;6.93;6.20;;;24.30;58.90;24.90;101660.00;;;;5010456;28;20187;-47
2023/06/24 09:14:24;;;;;;;7.80;6.23;;;24.30;58.70;24.90;101666.00;;;;5010280;28;20234;-47
2023/06/24 09:16:53;;;;;;;7.20;6.50;;;24.30;58.90;24.90;101654.00;;;;5010655;28;20167;-46
2023/06/24 09:19:23;;;;;;;6.97;6.30;;;24.30;58.90;24.90;101656.00;;;;5010771;28;20184;-46
2023/06/24 09:21:49;;;;;;;5.93;5.40;;;24.40;59.00;25.00;101649.00;;;;5010523;28;20182;-46
2023/06/24 09:24:14;;;;;;;5.57;5.17;;;24.30;58.90;25.00;101648.00;;;;5009570;28;20214;-48
2023/06/24 09:26:43;;;;;;;6.47;5.60;;;24.40;59.00;25.00;101660.00;;;;5010415;28;20180;-47
2023/06/24 09:29:09;;;;;;;7.43;6.63;;;24.40;58.80;25.00;101656.00;;;;5009562;28;20457;-46
2023/06/24 09:31:34;;;;;;;6.90;6.20;;;24.40;58.50;25.00;101652.00;;;;5010896;28;20176;-46
2023/06/24 09:34:00;;;;;;;5.80;5.30;;;24.40;58.50;25.00;101650.00;;;;5009255;28;20200;-47
2023/06/24 09:36:26;;;;;;;5.57;4.97;;;24.40;58.70;25.10;101644.00;;;;5010650;28;20518;-47
2023/06/24 09:38:52;;;;;;;5.60;5.10;;;24.40;58.80;25.10;101642.00;;;;4992495;28;20234;-46
2023/06/24 09:41:18;;;;;;;6.37;5.77;;;24.40;58.60;25.10;101642.00;;;;5009970;28;20423;-46
2023/06/24 09:43:44;;;;;;;6.30;5.70;;;24.50;58.60;25.10;101635.00;;;;5010107;28;20192;-46
2023/06/24 09:46:10;;;;;;;6.93;5.97;;;24.50;58.60;25.20;101633.00;;;;5010492;28;20636;-46
2023/06/24 09:48:36;;;;;;;6.77;6.10;;;24.50;58.70;25.20;101637.00;;;;5009011;28;20263;-46
2023/06/24 09:51:05;;;;;;;6.30;5.77;;;24.50;59.10;25.20;101629.00;;;;5009353;28;20182;-46
2023/06/24 09:53:32;;;;;;;6.53;5.93;;;24.60;59.30;25.20;101628.00;;;;5009959;28;20172;-42
2023/06/24 09:56:04;;;;;;;6.27;5.70;;;24.60;59.30;25.20;101626.00;;;;5002078;28;20171;-42
2023/06/24 09:58:36;;;;;;;7.03;5.53;;;24.60;58.80;25.30;101630.00;;;;4998572;28;20175;-42
2023/06/24 10:01:04;;;;;;;5.20;4.70;;;24.60;59.20;25.30;101623.00;;;;5007193;28;20631;-43
2023/06/24 10:03:35;;;;;;;5.20;4.70;;;24.60;59.20;25.30;101627.00;;;;4995876;28;20417;-42
2023/06/24 10:06:01;;;;;;;5.40;4.68;;;24.60;59.40;25.30;101621.00;;;;4996511;28;20700;-43
2023/06/24 10:08:27;;;;;;;5.03;4.53;;;24.60;59.60;25.30;101617.00;;;;4992658;28;20623;-42
2023/06/24 10:10:53;;;;;;;4.57;4.17;;;24.70;59.80;25.40;101614.00;;;;4988863;28;20172;-43
2023/06/24 10:13:19;;;;;;;5.57;4.27;;;24.70;59.80;25.40;101615.00;;;;4990026;28;20173;-43
2023/06/24 10:15:45;;;;;;;4.28;3.90;;;24.70;60.00;25.40;101605.00;;;;5009663;28;20559;-42
2023/06/24 10:18:35;;;;;;;4.70;4.30;;;24.70;60.10;25.50;101607.00;;;;5008517;28;20176;-44
2023/06/24 10:21:02;;;;;;;5.18;4.38;;;24.70;60.30;25.50;101595.00;;;;5004326;28;20191;-42
2023/06/24 10:23:40;;;;;;;4.70;4.28;;;24.70;60.50;25.50;101605.00;;;;5009455;28;20183;-42
2023/06/24 10:26:35;;;;;;;4.50;4.10;;;24.70;60.50;25.50;101602.00;;;;5008777;28;20642;-42
2023/06/24 10:29:07;;;;;;;4.32;4.03;;;24.80;60.90;25.50;101594.00;;;;5014136;28;20207;-43
2023/06/24 10:31:44;;;;;;;4.80;4.30;;;24.70;60.70;25.50;101595.00;;;;5014890;28;20230;-41
2023/06/24 10:34:28;;;;;;;4.00;3.70;;;24.80;61.10;25.60;101592.00;;;;5009558;28;20193;-42
2023/06/24 10:37:05;;;;;;;4.28;3.88;;;24.80;61.20;25.60;101586.00;;;;5009520;28;20219;-42
2023/06/24 10:39:40;;;;;;;4.10;3.70;;;24.90;61.30;25.60;101593.00;;;;5009500;28;20182;-42
2023/06/24 10:42:43;;;;;;;4.32;3.92;;;24.90;61.60;25.70;101525.00;;;;5009219;28;20582;-43
2023/06/24 10:45:09;;;;;;;4.53;3.80;;;24.90;61.80;25.70;101579.00;;;;5008733;28;20199;-43
2023/06/24 10:47:38;;;;;;;4.70;4.30;;;24.90;62.80;25.70;101575.00;;;;4996445;28;20674;-43
2023/06/24 10:50:05;;;;;;;4.10;3.70;;;24.90;62.30;25.70;101567.00;;;;4996421;28;20178;-44
2023/06/24 10:52:30;;;;;;;4.30;3.92;;;25.00;62.80;25.70;101560.00;;;;5007384;28;20187;-44